createdAt,value
2018-11-13T00:00:48.384Z,0
2018-11-13T00:01:48.380Z,0
2018-11-13T00:02:48.389Z,0
2018-11-13T00:03:48.135Z,0
2018-11-13T00:04:48.133Z,0
2018-11-13T00:05:48.439Z,0
2018-11-13T00:06:48.405Z,0
2018-11-13T00:07:48.448Z,0
2018-11-13T00:08:48.143Z,0
2018-11-13T00:09:48.168Z,0
2018-11-13T00:10:48.410Z,0
2018-11-13T00:11:48.411Z,0
2018-11-13T00:12:48.469Z,0
2018-11-13T00:13:48.424Z,0
2018-11-13T00:14:48.426Z,0
2018-11-13T00:15:48.174Z,0
2018-11-13T00:16:48.429Z,0
2018-11-13T00:17:47.944Z,0
2018-11-13T00:18:48.469Z,0
2018-11-13T00:19:48.191Z,0
2018-11-13T00:20:48.450Z,0
2018-11-13T00:21:48.444Z,0
2018-11-13T00:22:48.458Z,0
2018-11-13T00:23:47.667Z,0
2018-11-13T00:24:48.470Z,0
2018-11-13T00:25:48.421Z,0
2018-11-13T00:26:48.195Z,0
2018-11-13T00:27:48.668Z,0
2018-11-13T00:28:48.184Z,0
2018-11-13T00:29:48.213Z,0
2018-11-13T00:30:48.184Z,0
2018-11-13T00:31:48.464Z,0
2018-11-13T00:32:48.333Z,0
2018-11-13T00:33:48.223Z,0
2018-11-13T00:34:48.215Z,0
2018-11-13T00:35:47.953Z,0
2018-11-13T00:36:48.447Z,0
2018-11-13T00:37:48.501Z,0
2018-11-13T00:38:48.449Z,0
2018-11-13T00:39:48.509Z,0
2018-11-13T00:40:48.452Z,0
2018-11-13T00:41:48.211Z,0
2018-11-13T00:42:47.966Z,0
2018-11-13T00:43:47.969Z,0
2018-11-13T00:44:48.468Z,0
2018-11-13T00:45:49.248Z,0
2018-11-13T00:46:48.268Z,0
2018-11-13T00:47:48.248Z,0
2018-11-13T00:48:48.250Z,0
2018-11-13T00:49:48.516Z,0
2018-11-13T00:50:48.802Z,0
2018-11-13T00:51:48.253Z,0
2018-11-13T00:52:48.561Z,0
2018-11-13T00:53:48.007Z,0
2018-11-13T00:54:48.084Z,0
2018-11-13T00:55:48.525Z,0
2018-11-13T00:56:48.272Z,0
2018-11-13T00:57:48.832Z,0
2018-11-13T00:58:48.521Z,0
2018-11-13T00:59:48.525Z,0
2018-11-13T01:00:48.572Z,0
2018-11-13T01:01:48.369Z,0
2018-11-13T01:02:48.279Z,0
2018-11-13T01:03:48.541Z,0
2018-11-13T01:04:48.545Z,0
2018-11-13T01:05:48.195Z,0
2018-11-13T01:06:48.277Z,0
2018-11-13T01:07:49.100Z,0
2018-11-13T01:08:48.551Z,0
2018-11-13T01:09:48.544Z,0
2018-11-13T01:10:48.544Z,0
2018-11-13T01:11:48.797Z,0
2018-11-13T01:12:48.551Z,0
2018-11-13T01:13:48.297Z,0
2018-11-13T01:14:48.301Z,0
2018-11-13T01:15:48.572Z,0
2018-11-13T01:16:48.302Z,0
2018-11-13T01:17:48.579Z,0
2018-11-13T01:18:48.315Z,0
2018-11-13T01:19:48.320Z,0
2018-11-13T01:20:48.311Z,0
2018-11-13T01:21:48.575Z,0
2018-11-13T01:22:48.646Z,0
2018-11-13T01:23:48.718Z,0
2018-11-13T01:24:48.330Z,0
2018-11-13T01:25:48.575Z,0
2018-11-13T01:26:48.608Z,0
2018-11-13T01:27:48.584Z,0
2018-11-13T01:28:48.334Z,0
2018-11-13T01:29:48.588Z,0
2018-11-13T01:30:48.592Z,0
2018-11-13T01:31:48.337Z,0
2018-11-13T01:32:48.349Z,0
2018-11-13T01:33:48.318Z,0
2018-11-13T01:34:48.591Z,0
2018-11-13T01:35:48.326Z,0
2018-11-13T01:36:48.575Z,0
2018-11-13T01:37:48.190Z,0
2018-11-13T01:38:48.600Z,0
2018-11-13T01:39:48.607Z,0
2018-11-13T01:40:48.098Z,0
2018-11-13T01:41:49.005Z,0
2018-11-13T01:42:48.432Z,0
2018-11-13T01:43:48.352Z,0
2018-11-13T01:44:48.595Z,0
2018-11-13T01:45:48.604Z,0
2018-11-13T01:46:48.607Z,0
2018-11-13T01:47:48.634Z,0
2018-11-13T01:48:48.109Z,0
2018-11-13T01:49:48.112Z,0
2018-11-13T01:50:48.612Z,0
2018-11-13T01:51:48.688Z,0
2018-11-13T01:52:48.632Z,0
2018-11-13T01:53:48.615Z,0
2018-11-13T01:54:48.623Z,0
2018-11-13T01:55:48.614Z,0
2018-11-13T01:56:48.635Z,0
2018-11-13T01:57:48.688Z,0
2018-11-13T01:58:48.651Z,0
2018-11-13T01:59:48.641Z,0
2018-11-13T02:00:48.647Z,0
2018-11-13T02:01:48.641Z,0
2018-11-13T02:02:48.657Z,0
2018-11-13T02:03:48.642Z,0
2018-11-13T02:04:48.654Z,0
2018-11-13T02:05:48.652Z,0
2018-11-13T02:06:48.661Z,0
2018-11-13T02:07:48.667Z,0
2018-11-13T02:08:48.381Z,0
2018-11-13T02:09:48.380Z,0
2018-11-13T02:10:48.159Z,0
2018-11-13T02:11:48.658Z,0
2018-11-13T02:12:48.759Z,0
2018-11-13T02:13:48.664Z,0
2018-11-13T02:14:48.667Z,0
2018-11-13T02:15:48.677Z,0
2018-11-13T02:16:48.668Z,0
2018-11-13T02:17:48.687Z,0
2018-11-13T02:18:48.418Z,0
2018-11-13T02:19:48.676Z,0
2018-11-13T02:20:48.404Z,0
2018-11-13T02:21:48.664Z,0
2018-11-13T02:22:48.665Z,0
2018-11-13T02:23:48.659Z,0
2018-11-13T02:24:48.687Z,0
2018-11-13T02:25:48.447Z,0
2018-11-13T02:26:48.189Z,0
2018-11-13T02:27:48.232Z,0
2018-11-13T02:28:48.698Z,0
2018-11-13T02:29:48.692Z,0
2018-11-13T02:30:47.953Z,0
2018-11-13T02:31:48.700Z,0
2018-11-13T02:32:48.528Z,0
2018-11-13T02:33:48.448Z,0
2018-11-13T02:34:48.518Z,0
2018-11-13T02:35:48.953Z,0
2018-11-13T02:36:48.205Z,0
2018-11-13T02:37:48.467Z,0
2018-11-13T02:38:48.464Z,0
2018-11-13T02:39:48.468Z,0
2018-11-13T02:40:48.458Z,0
2018-11-13T02:41:48.469Z,0
2018-11-13T02:42:48.736Z,0
2018-11-13T02:43:48.479Z,0
2018-11-13T02:44:48.719Z,0
2018-11-13T02:45:48.724Z,0
2018-11-13T02:46:48.468Z,0
2018-11-13T02:47:48.791Z,0
2018-11-13T02:48:48.776Z,0
2018-11-13T02:49:48.730Z,0
2018-11-13T02:50:48.966Z,0
2018-11-13T02:51:48.489Z,0
2018-11-13T02:52:48.726Z,0
2018-11-13T02:53:48.493Z,0
2018-11-13T02:54:48.740Z,0
2018-11-13T02:55:48.239Z,0
2018-11-13T02:56:48.762Z,0
2018-11-13T02:57:48.495Z,0
2018-11-13T02:58:48.489Z,0
2018-11-13T02:59:48.778Z,0
2018-11-13T03:00:48.495Z,0
2018-11-13T03:01:48.755Z,0
2018-11-13T03:02:48.556Z,0
2018-11-13T03:03:48.752Z,0
2018-11-13T03:04:48.762Z,0
2018-11-13T03:05:48.757Z,0
2018-11-13T03:06:48.482Z,0
2018-11-13T03:07:48.529Z,0
2018-11-13T03:08:48.525Z,0
2018-11-13T03:09:48.507Z,0
2018-11-13T03:10:48.760Z,0
2018-11-13T03:11:48.804Z,0
2018-11-13T03:12:48.871Z,0
2018-11-13T03:13:49.279Z,0
2018-11-13T03:14:48.771Z,0
2018-11-13T03:15:48.765Z,0
2018-11-13T03:16:48.796Z,0
2018-11-13T03:17:48.837Z,0
2018-11-13T03:18:48.779Z,0
2018-11-13T03:19:48.777Z,0
2018-11-13T03:20:48.521Z,0
2018-11-13T03:21:48.778Z,0
2018-11-13T03:22:48.797Z,0
2018-11-13T03:23:48.777Z,0
2018-11-13T03:24:48.790Z,0
2018-11-13T03:25:48.872Z,0
2018-11-13T03:26:48.787Z,0
2018-11-13T03:27:48.790Z,0
2018-11-13T03:28:48.533Z,0
2018-11-13T03:29:48.540Z,0
2018-11-13T03:30:48.801Z,0
2018-11-13T03:31:48.796Z,0
2018-11-13T03:32:48.884Z,0
2018-11-13T03:33:48.537Z,0
2018-11-13T03:34:48.539Z,0
2018-11-13T03:35:48.803Z,0
2018-11-13T03:36:48.296Z,0
2018-11-13T03:37:48.821Z,0
2018-11-13T03:38:48.798Z,0
2018-11-13T03:39:48.297Z,0
2018-11-13T03:40:48.304Z,0
2018-11-13T03:41:48.546Z,0
2018-11-13T03:42:48.878Z,0
2018-11-13T03:43:48.556Z,0
2018-11-13T03:44:48.534Z,0
2018-11-13T03:45:48.543Z,0
2018-11-13T03:46:48.556Z,0
2018-11-13T03:47:48.590Z,0
2018-11-13T03:48:48.795Z,0
2018-11-13T03:49:48.813Z,0
2018-11-13T03:50:48.828Z,0
2018-11-13T03:51:48.310Z,0
2018-11-13T03:52:48.593Z,0
2018-11-13T03:53:48.535Z,0
2018-11-13T03:54:48.550Z,0
2018-11-13T03:55:48.804Z,0
2018-11-13T03:56:48.573Z,0
2018-11-13T03:57:48.895Z,0
2018-11-13T03:58:48.826Z,0
2018-11-13T03:59:48.836Z,0
2018-11-13T04:00:48.823Z,0
2018-11-13T04:01:48.852Z,0
2018-11-13T04:02:48.623Z,0
2018-11-13T04:03:48.828Z,0
2018-11-13T04:04:48.837Z,0
2018-11-13T04:05:48.317Z,0
2018-11-13T04:06:48.821Z,0
2018-11-13T04:07:48.828Z,0
2018-11-13T04:08:48.570Z,0
2018-11-13T04:09:48.579Z,0
2018-11-13T04:10:48.575Z,0
2018-11-13T04:11:48.322Z,0
2018-11-13T04:12:48.574Z,0
2018-11-13T04:13:48.880Z,0
2018-11-13T04:14:48.844Z,0
2018-11-13T04:15:48.583Z,0
2018-11-13T04:16:48.854Z,0
2018-11-13T04:17:48.899Z,0
2018-11-13T04:18:48.839Z,0
2018-11-13T04:19:48.603Z,0
2018-11-13T04:20:48.590Z,0
2018-11-13T04:21:48.337Z,0
2018-11-13T04:22:48.598Z,0
2018-11-13T04:23:49.048Z,0
2018-11-13T04:24:48.599Z,0
2018-11-13T04:25:48.866Z,0
2018-11-13T04:26:48.612Z,0
2018-11-13T04:27:48.611Z,0
2018-11-13T04:28:48.620Z,0
2018-11-13T04:29:48.851Z,0
2018-11-13T04:30:49.479Z,0
2018-11-13T04:31:48.600Z,0
2018-11-13T04:32:48.694Z,0
2018-11-13T04:33:48.851Z,0
2018-11-13T04:34:48.624Z,0
2018-11-13T04:35:48.605Z,0
2018-11-13T04:36:48.593Z,0
2018-11-13T04:37:48.847Z,0
2018-11-13T04:38:48.596Z,0
2018-11-13T04:39:48.596Z,0
2018-11-13T04:40:48.868Z,0
2018-11-13T04:41:48.867Z,0
2018-11-13T04:42:48.866Z,0
2018-11-13T04:43:48.609Z,0
2018-11-13T04:44:48.607Z,0
2018-11-13T04:45:48.613Z,0
2018-11-13T04:46:48.369Z,0
2018-11-13T04:47:48.671Z,0
2018-11-13T04:48:48.873Z,0
2018-11-13T04:49:48.887Z,0
2018-11-13T04:50:48.877Z,0
2018-11-13T04:51:49.512Z,0
2018-11-13T04:52:48.368Z,0
2018-11-13T04:53:48.629Z,0
2018-11-13T04:54:48.876Z,0
2018-11-13T04:55:48.368Z,0
2018-11-13T04:56:48.627Z,0
2018-11-13T04:57:48.876Z,0
2018-11-13T04:58:48.632Z,0
2018-11-13T04:59:48.613Z,0
2018-11-13T05:00:48.871Z,0
2018-11-13T05:01:48.642Z,0
2018-11-13T05:02:49.375Z,0
2018-11-13T05:03:48.362Z,0
2018-11-13T05:04:48.867Z,0
2018-11-13T05:05:48.890Z,0
2018-11-13T05:06:48.869Z,0
2018-11-13T05:07:48.872Z,0
2018-11-13T05:08:48.873Z,0
2018-11-13T05:09:48.886Z,0
2018-11-13T05:10:48.634Z,0
2018-11-13T05:11:48.766Z,0
2018-11-13T05:12:48.894Z,0
2018-11-13T05:13:48.886Z,0
2018-11-13T05:14:48.644Z,0
2018-11-13T05:15:48.888Z,0
2018-11-13T05:16:48.633Z,0
2018-11-13T05:17:48.956Z,0
2018-11-13T05:18:48.652Z,0
2018-11-13T05:19:48.639Z,0
2018-11-13T05:20:48.895Z,0
2018-11-13T05:21:48.914Z,0
2018-11-13T05:22:48.647Z,0
2018-11-13T05:23:48.640Z,0
2018-11-13T05:24:48.638Z,0
2018-11-13T05:25:48.889Z,0
2018-11-13T05:26:48.933Z,0
2018-11-13T05:27:48.899Z,0
2018-11-13T05:28:48.893Z,0
2018-11-13T05:29:48.908Z,0
2018-11-13T05:30:48.408Z,0
2018-11-13T05:31:48.919Z,0
2018-11-13T05:32:48.456Z,0
2018-11-13T05:33:48.894Z,0
2018-11-13T05:34:48.641Z,0
2018-11-13T05:35:48.901Z,0
2018-11-13T05:36:48.899Z,0
2018-11-13T05:37:48.955Z,0
2018-11-13T05:38:48.649Z,0
2018-11-13T05:39:48.395Z,0
2018-11-13T05:40:48.395Z,0
2018-11-13T05:41:49.378Z,4
2018-11-13T05:42:49.064Z,4
2018-11-13T05:43:48.649Z,4
2018-11-13T05:44:48.907Z,4
2018-11-13T05:45:48.653Z,4
2018-11-13T05:46:48.911Z,4
2018-11-13T05:47:48.917Z,4
2018-11-13T05:48:48.918Z,0
2018-11-13T05:49:48.404Z,4
2018-11-13T05:50:48.650Z,4
2018-11-13T05:51:48.403Z,4
2018-11-13T05:52:48.654Z,4
2018-11-13T05:53:48.909Z,8
2018-11-13T05:54:48.918Z,8
2018-11-13T05:55:48.677Z,8
2018-11-13T05:56:48.659Z,8
2018-11-13T05:57:48.966Z,8
2018-11-13T05:58:48.911Z,12
2018-11-13T05:59:49.225Z,16
2018-11-13T06:00:48.914Z,20
2018-11-13T06:01:48.925Z,20
2018-11-13T06:02:48.910Z,28
2018-11-13T06:03:48.912Z,28
2018-11-13T06:04:48.446Z,32
2018-11-13T06:05:48.659Z,40
2018-11-13T06:06:48.407Z,44
2018-11-13T06:07:48.916Z,52
2018-11-13T06:08:48.791Z,56
2018-11-13T06:09:48.913Z,64
2018-11-13T06:10:48.660Z,72
2018-11-13T06:11:48.909Z,80
2018-11-13T06:12:48.459Z,92
2018-11-13T06:13:48.659Z,104
2018-11-13T06:14:48.914Z,112
2018-11-13T06:15:48.661Z,124
2018-11-13T06:16:48.661Z,132
2018-11-13T06:17:48.922Z,140
2018-11-13T06:18:48.915Z,156
2018-11-13T06:19:48.915Z,164
2018-11-13T06:20:48.675Z,180
2018-11-13T06:21:48.663Z,196
2018-11-13T06:22:49.166Z,208
2018-11-13T06:23:48.662Z,220
2018-11-13T06:24:48.409Z,240
2018-11-13T06:25:48.689Z,252
2018-11-13T06:26:48.670Z,268
2018-11-13T06:27:48.986Z,284
2018-11-13T06:28:48.664Z,304
2018-11-13T06:29:49.428Z,328
2018-11-13T06:30:48.663Z,348
2018-11-13T06:31:48.663Z,372
2018-11-13T06:32:48.930Z,400
2018-11-13T06:33:48.418Z,428
2018-11-13T06:34:48.669Z,456
2018-11-13T06:35:48.933Z,484
2018-11-13T06:36:48.924Z,512
2018-11-13T06:37:48.684Z,540
2018-11-13T06:38:49.206Z,564
2018-11-13T06:39:48.415Z,592
2018-11-13T06:40:48.669Z,624
2018-11-13T06:41:48.938Z,652
2018-11-13T06:42:48.978Z,688
2018-11-13T06:43:48.177Z,724
2018-11-13T06:44:48.685Z,764
2018-11-13T06:45:48.676Z,800
2018-11-13T06:46:48.677Z,844
2018-11-13T06:47:48.936Z,888
2018-11-13T06:48:48.990Z,932
2018-11-13T06:49:49.318Z,984
2018-11-13T06:50:48.697Z,1032
2018-11-13T06:51:48.933Z,1088
2018-11-13T06:52:48.678Z,1148
2018-11-13T06:53:48.933Z,1204
2018-11-13T06:54:48.690Z,1256
2018-11-13T06:55:48.715Z,1300
2018-11-13T06:56:48.449Z,1332
2018-11-13T06:57:48.741Z,1356
2018-11-13T06:58:48.428Z,1376
2018-11-13T06:59:48.702Z,1408
2018-11-13T07:00:48.942Z,1448
2018-11-13T07:01:48.940Z,1504
2018-11-13T07:02:48.429Z,1564
2018-11-13T07:03:48.946Z,1588
2018-11-13T07:04:48.766Z,1616
2018-11-13T07:05:48.434Z,1676
2018-11-13T07:06:48.939Z,1752
2018-11-13T07:07:48.943Z,1792
2018-11-13T07:08:48.436Z,1816
2018-11-13T07:09:48.440Z,1832
2018-11-13T07:10:49.383Z,1844
2018-11-13T07:11:48.941Z,1900
2018-11-13T07:12:48.742Z,1904
2018-11-13T07:13:48.441Z,2012
2018-11-13T07:14:48.702Z,2188
2018-11-13T07:15:48.695Z,2364
2018-11-13T07:16:48.703Z,2480
2018-11-13T07:17:48.706Z,2684
2018-11-13T07:18:48.973Z,2720
2018-11-13T07:19:48.956Z,2828
2018-11-13T07:20:48.964Z,2856
2018-11-13T07:21:48.710Z,3020
2018-11-13T07:22:48.816Z,2800
2018-11-13T07:23:48.988Z,2660
2018-11-13T07:24:48.474Z,2704
2018-11-13T07:25:48.980Z,2916
2018-11-13T07:26:48.970Z,3256
2018-11-13T07:27:49.337Z,3384
2018-11-13T07:28:48.506Z,3180
2018-11-13T07:29:48.456Z,3384
2018-11-13T07:30:48.714Z,3600
2018-11-13T07:31:48.968Z,3848
2018-11-13T07:32:48.706Z,3808
2018-11-13T07:33:48.719Z,3612
2018-11-13T07:34:48.971Z,3376
2018-11-13T07:35:48.971Z,3432
2018-11-13T07:36:48.967Z,3516
2018-11-13T07:37:48.967Z,3796
2018-11-13T07:38:48.984Z,3360
2018-11-13T07:39:48.737Z,3540
2018-11-13T07:40:48.761Z,3660
2018-11-13T07:41:48.975Z,3756
2018-11-13T07:42:48.777Z,3828
2018-11-13T07:43:48.719Z,3840
2018-11-13T07:44:48.983Z,3932
2018-11-13T07:45:48.475Z,3756
2018-11-13T07:46:48.977Z,4088
2018-11-13T07:47:50.203Z,4224
2018-11-13T07:48:48.768Z,3116
2018-11-13T07:49:48.754Z,3232
2018-11-13T07:50:49.048Z,3144
2018-11-13T07:51:49.012Z,3624
2018-11-13T07:52:48.517Z,4220
2018-11-13T07:53:49.285Z,4832
2018-11-13T07:54:49.030Z,4620
2018-11-13T07:55:49.017Z,4732
2018-11-13T07:56:48.767Z,4116
2018-11-13T07:57:48.837Z,4720
2018-11-13T07:58:49.031Z,4972
2018-11-13T07:59:49.029Z,5024
2018-11-13T08:00:49.034Z,4920
2018-11-13T08:01:49.058Z,4920
2018-11-13T08:02:49.040Z,4444
2018-11-13T08:03:49.028Z,5440
2018-11-13T08:04:49.051Z,5372
2018-11-13T08:05:48.644Z,5332
2018-11-13T08:06:49.511Z,5412
2018-11-13T08:07:49.156Z,5508
2018-11-13T08:08:49.052Z,5896
2018-11-13T08:09:49.056Z,6032
2018-11-13T08:10:49.061Z,6068
2018-11-13T08:11:49.065Z,5992
2018-11-13T08:12:49.597Z,6012
2018-11-13T08:13:49.121Z,6084
2018-11-13T08:14:49.077Z,5964
2018-11-13T08:15:48.940Z,5588
2018-11-13T08:16:48.852Z,5660
2018-11-13T08:17:48.828Z,5944
2018-11-13T08:18:48.724Z,6068
2018-11-13T08:19:48.834Z,5992
2018-11-13T08:20:48.844Z,6092
2018-11-13T08:21:48.600Z,5316
2018-11-13T08:22:49.193Z,6372
2018-11-13T08:23:49.107Z,6920
2018-11-13T08:24:49.106Z,6864
2018-11-13T08:25:49.043Z,7180
2018-11-13T08:26:49.141Z,7432
2018-11-13T08:27:49.607Z,7488
2018-11-13T08:28:49.207Z,7040
2018-11-13T08:29:48.859Z,7940
2018-11-13T08:30:49.108Z,7968
2018-11-13T08:31:49.106Z,8216
2018-11-13T08:32:49.213Z,7540
2018-11-13T08:33:49.116Z,8060
2018-11-13T08:34:49.361Z,8220
2018-11-13T08:35:49.547Z,8356
2018-11-13T08:36:48.899Z,7980
2018-11-13T08:37:49.202Z,6988
2018-11-13T08:38:49.179Z,6900
2018-11-13T08:39:48.915Z,6856
2018-11-13T08:40:49.177Z,6724
2018-11-13T08:41:49.177Z,7296
2018-11-13T08:42:48.929Z,6704
2018-11-13T08:43:48.770Z,6944
2018-11-13T08:44:49.183Z,7364
2018-11-13T08:45:48.931Z,7780
2018-11-13T08:46:48.942Z,8072
2018-11-13T08:47:49.000Z,8296
2018-11-13T08:48:48.956Z,8724
2018-11-13T08:49:48.955Z,8644
2018-11-13T08:50:49.388Z,8596
2018-11-13T08:51:49.216Z,9088
2018-11-13T08:52:49.223Z,8424
2018-11-13T08:53:49.230Z,8244
2018-11-13T08:54:49.237Z,8252
2018-11-13T08:55:48.979Z,7012
2018-11-13T08:56:48.982Z,6252
2018-11-13T08:57:48.990Z,5996
2018-11-13T08:58:49.478Z,5900
2018-11-13T08:59:49.447Z,5920
2018-11-13T09:00:49.313Z,5532
2018-11-13T09:01:49.292Z,5560
2018-11-13T09:02:49.156Z,5664
2018-11-13T09:03:49.289Z,5672
2018-11-13T09:04:49.395Z,5728
2018-11-13T09:05:49.289Z,5916
2018-11-13T09:06:49.304Z,6400
2018-11-13T09:07:49.301Z,6928
2018-11-13T09:08:49.330Z,7388
2018-11-13T09:09:49.315Z,7872
2018-11-13T09:10:49.066Z,8472
2018-11-13T09:11:49.633Z,9180
2018-11-13T09:12:49.077Z,8940
2018-11-13T09:13:49.336Z,9216
2018-11-13T09:14:48.833Z,9180
2018-11-13T09:15:48.846Z,8520
2018-11-13T09:16:49.347Z,8464
2018-11-13T09:17:48.649Z,8588
2018-11-13T09:18:49.253Z,8444
2018-11-13T09:19:49.594Z,8528
2018-11-13T09:20:49.125Z,8792
2018-11-13T09:21:49.345Z,8840
2018-11-13T09:22:49.013Z,9128
2018-11-13T09:23:49.160Z,9152
2018-11-13T09:24:49.152Z,9584
2018-11-13T09:25:49.406Z,10080
2018-11-13T09:26:49.411Z,10512
2018-11-13T09:27:48.910Z,11740
2018-11-13T09:28:49.175Z,11540
2018-11-13T09:29:49.440Z,11812
2018-11-13T09:30:50.825Z,12324
2018-11-13T09:31:49.494Z,11948
2018-11-13T09:32:49.086Z,12084
2018-11-13T09:33:49.554Z,12204
2018-11-13T09:34:49.220Z,13100
2018-11-13T09:35:49.025Z,13204
2018-11-13T09:36:49.476Z,13128
2018-11-13T09:37:49.492Z,13184
2018-11-13T09:38:49.240Z,13032
2018-11-13T09:39:49.002Z,12496
2018-11-13T09:40:48.751Z,12184
2018-11-13T09:41:49.510Z,10220
2018-11-13T09:42:49.527Z,9736
2018-11-13T09:43:49.273Z,9008
2018-11-13T09:44:49.792Z,8804
2018-11-13T09:45:49.436Z,8644
2018-11-13T09:46:49.287Z,8472
2018-11-13T09:47:50.167Z,8400
2018-11-13T09:48:49.366Z,8424
2018-11-13T09:49:49.302Z,8968
2018-11-13T09:50:49.323Z,9768
2018-11-13T09:51:49.410Z,10200
2018-11-13T09:52:49.334Z,10708
2018-11-13T09:53:49.544Z,11904
2018-11-13T09:54:49.364Z,13388
2018-11-13T09:55:49.351Z,14516
2018-11-13T09:56:49.381Z,15448
2018-11-13T09:57:49.619Z,15396
2018-11-13T09:58:49.481Z,16864
2018-11-13T09:59:49.554Z,15244
2018-11-13T10:00:50.911Z,14244
2018-11-13T10:01:52.478Z,12736
2018-11-13T10:02:53.600Z,10904
2018-11-13T10:03:52.288Z,10856
2018-11-13T10:04:54.288Z,12044
2018-11-13T10:05:50.433Z,13256
2018-11-13T10:06:49.498Z,14780
2018-11-13T10:07:49.441Z,12388
2018-11-13T10:08:49.437Z,13932
2018-11-13T10:09:49.458Z,18624
2018-11-13T10:10:50.236Z,20288
2018-11-13T10:11:49.210Z,16576
2018-11-13T10:12:49.737Z,11696
2018-11-13T10:13:49.742Z,13524
2018-11-13T10:14:49.778Z,14868
2018-11-13T10:15:49.251Z,16576
2018-11-13T10:16:49.741Z,13740
2018-11-13T10:17:50.499Z,12896
2018-11-13T10:18:49.531Z,8736
2018-11-13T10:19:49.803Z,8416
2018-11-13T10:20:49.289Z,9792
2018-11-13T10:21:49.294Z,11740
2018-11-13T10:22:49.632Z,13472
2018-11-13T10:23:49.829Z,24384
2018-11-13T10:24:49.573Z,24448
2018-11-13T10:25:49.840Z,16256
2018-11-13T10:26:49.949Z,21120
2018-11-13T10:27:50.240Z,12080
2018-11-13T10:28:49.605Z,14616
2018-11-13T10:29:49.978Z,13020
2018-11-13T10:30:49.369Z,15912
2018-11-13T10:31:49.903Z,13584
2018-11-13T10:32:49.672Z,14408
2018-11-13T10:33:49.920Z,23456
2018-11-13T10:34:49.906Z,20736
2018-11-13T10:35:49.405Z,27904
2018-11-13T10:36:49.972Z,30272
2018-11-13T10:37:49.986Z,20640
2018-11-13T10:38:49.428Z,12492
2018-11-13T10:39:49.746Z,12284
2018-11-13T10:40:50.411Z,10084
2018-11-13T10:41:49.448Z,10560
2018-11-13T10:42:49.967Z,10076
2018-11-13T10:43:49.730Z,9884
2018-11-13T10:44:49.729Z,10208
2018-11-13T10:45:49.736Z,11052
2018-11-13T10:46:49.755Z,10168
2018-11-13T10:47:50.011Z,8876
2018-11-13T10:48:50.100Z,9024
2018-11-13T10:49:50.037Z,10136
2018-11-13T10:50:50.026Z,11452
2018-11-13T10:51:50.031Z,10672
2018-11-13T10:52:49.653Z,9320
2018-11-13T10:53:49.576Z,7320
2018-11-13T10:54:50.065Z,6016
2018-11-13T10:55:50.091Z,5404
2018-11-13T10:56:49.813Z,6172
2018-11-13T10:57:49.826Z,6684
2018-11-13T10:58:50.097Z,6648
2018-11-13T10:59:50.084Z,6216
2018-11-13T11:00:50.105Z,5820
2018-11-13T11:01:50.101Z,5724
2018-11-13T11:02:50.114Z,5120
2018-11-13T11:03:50.139Z,4316
2018-11-13T11:04:49.882Z,3400
2018-11-13T11:05:50.139Z,2776
2018-11-13T11:06:49.637Z,2400
2018-11-13T11:07:49.696Z,2156
2018-11-13T11:08:50.162Z,2004
2018-11-13T11:09:50.180Z,2088
2018-11-13T11:10:50.191Z,2316
2018-11-13T11:11:50.187Z,2308
2018-11-13T11:12:50.474Z,2276
2018-11-13T11:13:50.680Z,2220
2018-11-13T11:14:49.939Z,2212
2018-11-13T11:15:49.946Z,2244
2018-11-13T11:16:49.955Z,2328
2018-11-13T11:17:49.951Z,2420
2018-11-13T11:18:50.062Z,2200
2018-11-13T11:19:50.239Z,2072
2018-11-13T11:20:49.969Z,2068
2018-11-13T11:21:50.233Z,2016
2018-11-13T11:22:50.413Z,2096
2018-11-13T11:23:50.688Z,2276
2018-11-13T11:24:50.241Z,2464
2018-11-13T11:25:50.249Z,2276
2018-11-13T11:26:50.278Z,2064
2018-11-13T11:27:50.500Z,2068
2018-11-13T11:28:50.035Z,2020
2018-11-13T11:29:50.274Z,1964
2018-11-13T11:30:50.466Z,1880
2018-11-13T11:31:50.040Z,1764
2018-11-13T11:32:50.301Z,1684
2018-11-13T11:33:50.299Z,1708
2018-11-13T11:34:50.309Z,1776
2018-11-13T11:35:50.320Z,1760
2018-11-13T11:36:49.811Z,1688
2018-11-13T11:37:50.116Z,1580
2018-11-13T11:38:50.061Z,1528
2018-11-13T11:39:50.477Z,1540
2018-11-13T11:40:50.075Z,1576
2018-11-13T11:41:49.834Z,1608
2018-11-13T11:42:50.346Z,1672
2018-11-13T11:43:50.098Z,1748
2018-11-13T11:44:50.119Z,1756
2018-11-13T11:45:50.610Z,1804
2018-11-13T11:46:49.881Z,1864
2018-11-13T11:47:50.121Z,1904
2018-11-13T11:48:50.429Z,1952
2018-11-13T11:49:50.135Z,1988
2018-11-13T11:50:50.132Z,2044
2018-11-13T11:51:50.395Z,2160
2018-11-13T11:52:50.490Z,2352
2018-11-13T11:53:50.712Z,2552
2018-11-13T11:54:50.252Z,2644
2018-11-13T11:55:50.178Z,2512
2018-11-13T11:56:50.413Z,2368
2018-11-13T11:57:50.472Z,2436
2018-11-13T11:58:50.167Z,2592
2018-11-13T11:59:50.427Z,2684
2018-11-13T12:00:50.660Z,2556
2018-11-13T12:01:50.439Z,2440
2018-11-13T12:02:50.435Z,2364
2018-11-13T12:03:50.439Z,2372
2018-11-13T12:04:50.271Z,2400
2018-11-13T12:05:50.439Z,2464
2018-11-13T12:06:50.196Z,2580
2018-11-13T12:07:50.524Z,2764
2018-11-13T12:08:50.201Z,3052
2018-11-13T12:09:50.470Z,3260
2018-11-13T12:10:50.218Z,3420
2018-11-13T12:11:50.477Z,3380
2018-11-13T12:12:50.227Z,3348
2018-11-13T12:13:50.243Z,3272
2018-11-13T12:14:50.504Z,3488
2018-11-13T12:15:50.500Z,3584
2018-11-13T12:16:50.250Z,3540
2018-11-13T12:17:50.247Z,3680
2018-11-13T12:18:50.373Z,3808
2018-11-13T12:19:50.261Z,3960
2018-11-13T12:20:50.515Z,3996
2018-11-13T12:21:50.526Z,3796
2018-11-13T12:22:50.424Z,3504
2018-11-13T12:23:50.552Z,3268
2018-11-13T12:24:50.365Z,2952
2018-11-13T12:25:50.859Z,2660
2018-11-13T12:26:50.580Z,2460
2018-11-13T12:27:50.567Z,2280
2018-11-13T12:28:50.566Z,2164
2018-11-13T12:29:50.329Z,2056
2018-11-13T12:30:50.572Z,2036
2018-11-13T12:31:50.571Z,2128
2018-11-13T12:32:50.386Z,2168
2018-11-13T12:33:50.326Z,2164
2018-11-13T12:34:50.994Z,2104
2018-11-13T12:35:50.588Z,1984
2018-11-13T12:36:50.085Z,1916
2018-11-13T12:37:50.654Z,1816
2018-11-13T12:38:50.657Z,1696
2018-11-13T12:39:50.354Z,1608
2018-11-13T12:40:51.162Z,1572
2018-11-13T12:41:50.607Z,1564
2018-11-13T12:42:51.332Z,1492
2018-11-13T12:43:50.130Z,1464
2018-11-13T12:44:50.671Z,1460
2018-11-13T12:45:50.658Z,1396
2018-11-13T12:46:50.677Z,1284
2018-11-13T12:47:50.136Z,1208
2018-11-13T12:48:50.682Z,1168
2018-11-13T12:49:50.655Z,1144
2018-11-13T12:50:50.414Z,1132
2018-11-13T12:51:50.148Z,1124
2018-11-13T12:52:50.755Z,1132
2018-11-13T12:53:50.665Z,1144
2018-11-13T12:54:50.164Z,1152
2018-11-13T12:55:50.401Z,1168
2018-11-13T12:56:50.433Z,1196
2018-11-13T12:57:50.433Z,1212
2018-11-13T12:58:50.686Z,1220
2018-11-13T12:59:50.439Z,1192
2018-11-13T13:00:50.438Z,1156
2018-11-13T13:01:50.695Z,1116
2018-11-13T13:02:50.448Z,1076
2018-11-13T13:03:50.460Z,1032
2018-11-13T13:04:50.467Z,992
2018-11-13T13:05:50.468Z,952
2018-11-13T13:06:50.723Z,928
2018-11-13T13:07:51.013Z,912
2018-11-13T13:08:51.377Z,924
2018-11-13T13:09:50.484Z,944
2018-11-13T13:10:50.749Z,960
2018-11-13T13:11:50.720Z,960
2018-11-13T13:12:50.494Z,940
2018-11-13T13:13:50.753Z,884
2018-11-13T13:14:50.790Z,832
2018-11-13T13:15:50.761Z,800
2018-11-13T13:16:50.811Z,808
2018-11-13T13:17:50.751Z,828
2018-11-13T13:18:50.678Z,856
2018-11-13T13:19:50.783Z,888
2018-11-13T13:20:50.546Z,912
2018-11-13T13:21:50.666Z,908
2018-11-13T13:22:50.852Z,924
2018-11-13T13:23:50.548Z,956
2018-11-13T13:24:50.791Z,1004
2018-11-13T13:25:50.864Z,1016
2018-11-13T13:26:50.802Z,964
2018-11-13T13:27:50.810Z,900
2018-11-13T13:28:50.810Z,900
2018-11-13T13:29:50.570Z,952
2018-11-13T13:30:50.838Z,980
2018-11-13T13:31:51.310Z,960
2018-11-13T13:32:50.602Z,904
2018-11-13T13:33:50.592Z,800
2018-11-13T13:34:50.847Z,716
2018-11-13T13:35:50.335Z,664
2018-11-13T13:36:50.329Z,644
2018-11-13T13:37:50.907Z,636
2018-11-13T13:38:50.981Z,612
2018-11-13T13:39:50.608Z,592
2018-11-13T13:40:50.873Z,560
2018-11-13T13:41:50.808Z,528
2018-11-13T13:42:50.613Z,516
2018-11-13T13:43:50.870Z,508
2018-11-13T13:44:50.880Z,512
2018-11-13T13:45:50.636Z,516
2018-11-13T13:46:50.958Z,520
2018-11-13T13:47:50.884Z,528
2018-11-13T13:48:50.955Z,532
2018-11-13T13:49:50.650Z,536
2018-11-13T13:50:50.677Z,540
2018-11-13T13:51:50.398Z,540
2018-11-13T13:52:50.988Z,548
2018-11-13T13:53:51.201Z,556
2018-11-13T13:54:50.412Z,572
2018-11-13T13:55:50.665Z,584